createdAt,value
2018-06-03T00:00:49.751Z,18.20
2018-06-03T00:03:47.689Z,18.20
2018-06-03T00:06:45.570Z,18.20
2018-06-03T00:09:42.603Z,18.20
2018-06-03T00:12:40.421Z,18.20
2018-06-03T00:15:38.281Z,18.20
2018-06-03T00:18:35.232Z,18.20
2018-06-03T00:21:57.245Z,18.10
2018-06-03T00:24:55.161Z,18.10
2018-06-03T00:27:53.110Z,18.10
2018-06-03T00:30:51.206Z,18.00
2018-06-03T00:33:49.233Z,18.00
2018-06-03T00:36:58.204Z,18.00
2018-06-03T00:39:56.005Z,18.20
2018-06-03T00:42:53.865Z,18.20
2018-06-03T00:45:51.818Z,18.00
2018-06-03T00:48:49.596Z,18.00
2018-06-03T00:51:47.629Z,18.00
2018-06-03T00:54:45.380Z,18.00
2018-06-03T00:57:43.275Z,18.00
2018-06-03T01:00:41.378Z,18.00
2018-06-03T01:03:38.422Z,17.80
2018-06-03T01:06:36.072Z,17.80
2018-06-03T01:09:34.029Z,17.80
2018-06-03T01:12:31.117Z,17.80
2018-06-03T01:15:29.144Z,17.80
2018-06-03T01:19:13.268Z,17.80
2018-06-03T01:22:10.985Z,17.70
2018-06-03T01:25:09.736Z,17.80
2018-06-03T01:28:07.654Z,17.80
2018-06-03T01:31:05.553Z,17.70
2018-06-03T01:34:03.604Z,17.70
2018-06-03T01:37:01.533Z,17.70
2018-06-03T01:39:59.472Z,17.70
2018-06-03T01:42:56.724Z,17.60
2018-06-03T01:45:54.702Z,17.40
2018-06-03T01:48:52.608Z,17.60
2018-06-03T01:51:50.491Z,17.60
2018-06-03T01:54:48.858Z,17.60
2018-06-03T01:57:46.595Z,17.50
2018-06-03T02:00:44.760Z,17.50
2018-06-03T02:03:42.800Z,17.40
2018-06-03T02:06:40.868Z,17.40
2018-06-03T02:09:38.590Z,17.40
2018-06-03T02:12:36.567Z,17.40
2018-06-03T02:15:34.596Z,17.50
2018-06-03T02:18:32.359Z,17.50
2018-06-03T02:21:30.530Z,17.60
2018-06-03T02:24:28.701Z,17.70
2018-06-03T02:27:26.859Z,17.70
2018-06-03T02:36:04.458Z,17.60
2018-06-03T02:41:51.819Z,17.60
2018-06-03T02:44:50.945Z,17.70
2018-06-03T02:47:49.057Z,17.70
2018-06-03T02:50:46.865Z,17.70
2018-06-03T02:53:45.701Z,17.80
2018-06-03T02:56:43.616Z,17.90
2018-06-03T02:59:42.357Z,17.90
2018-06-03T03:02:40.532Z,18.00
2018-06-03T03:05:39.623Z,17.90
2018-06-03T03:08:37.460Z,18.00
2018-06-03T03:11:35.562Z,18.10
2018-06-03T03:14:33.508Z,18.10
2018-06-03T03:17:31.693Z,18.10
2018-06-03T03:20:29.583Z,18.10
2018-06-03T03:23:27.618Z,18.20
2018-06-03T03:26:24.941Z,18.20
2018-06-03T03:29:23.059Z,18.20
2018-06-03T03:32:21.004Z,18.30
2018-06-03T03:35:19.125Z,18.30
2018-06-03T03:38:17.162Z,18.30
2018-06-03T03:41:15.065Z,18.40
2018-06-03T03:44:12.342Z,18.50
2018-06-03T03:47:10.151Z,18.60
2018-06-03T03:50:08.227Z,18.60
2018-06-03T03:53:06.894Z,18.70
2018-06-03T03:56:04.873Z,18.80
2018-06-03T03:59:02.812Z,18.70
2018-06-03T04:04:50.616Z,18.90
2018-06-03T04:07:48.225Z,18.90
2018-06-03T04:10:45.860Z,19.00
2018-06-03T04:13:43.816Z,19.20
2018-06-03T04:16:41.588Z,19.40
2018-06-03T04:19:39.457Z,19.40
2018-06-03T04:22:37.282Z,19.60
2018-06-03T04:25:34.517Z,19.80
2018-06-03T04:28:32.419Z,19.90
2018-06-03T04:31:30.663Z,19.80
2018-06-03T04:34:28.494Z,19.90
2018-06-03T04:37:26.581Z,20.00
2018-06-03T04:40:24.611Z,20.10
2018-06-03T04:43:21.810Z,20.40
2018-06-03T04:46:19.779Z,20.50
2018-06-03T04:49:17.711Z,20.50
2018-06-03T04:52:15.707Z,20.40
2018-06-03T04:55:13.367Z,20.40
2018-06-03T04:58:11.408Z,20.50
2018-06-03T05:01:09.198Z,20.50
2018-06-03T05:04:07.107Z,20.60
2018-06-03T05:07:05.099Z,20.50
2018-06-03T05:10:03.253Z,20.50
2018-06-03T05:13:00.449Z,20.50
2018-06-03T05:15:58.276Z,20.70
2018-06-03T05:18:56.310Z,20.90
2018-06-03T05:21:54.105Z,21.10
2018-06-03T05:24:52.045Z,21.10
2018-06-03T05:27:49.743Z,21.20
2018-06-03T05:30:47.596Z,21.10
2018-06-03T05:33:45.422Z,21.20
2018-06-03T05:36:43.714Z,21.40
2018-06-03T05:39:41.787Z,21.40
2018-06-03T05:42:40.347Z,21.30
2018-06-03T05:45:38.180Z,21.40
2018-06-03T05:48:36.258Z,21.50
2018-06-03T05:51:34.387Z,21.50
2018-06-03T05:54:33.442Z,21.60
2018-06-03T05:57:31.398Z,21.70
2018-06-03T06:00:29.375Z,21.80
2018-06-03T06:03:27.293Z,22.00
2018-06-03T06:06:25.391Z,22.10
2018-06-03T06:09:23.296Z,22.20
2018-06-03T06:12:21.219Z,22.20
2018-06-03T06:15:18.934Z,22.30
2018-06-03T06:18:17.072Z,22.40
2018-06-03T06:21:15.031Z,22.50
2018-06-03T06:24:12.990Z,22.60
2018-06-03T06:27:10.886Z,22.80
2018-06-03T06:30:09.860Z,23.00
2018-06-03T06:33:07.960Z,23.20
2018-06-03T06:36:06.073Z,23.30
2018-06-03T06:39:03.576Z,23.50
2018-06-03T06:42:01.427Z,23.80
2018-06-03T06:44:59.666Z,24.00
2018-06-03T06:47:57.618Z,24.10
2018-06-03T06:50:55.399Z,24.10
2018-06-03T06:53:52.622Z,24.20
2018-06-03T06:56:50.659Z,25.10
2018-06-03T06:59:48.633Z,26.60
2018-06-03T07:02:47.749Z,28.60
2018-06-03T07:05:45.858Z,29.30
2018-06-03T07:08:43.729Z,29.40
2018-06-03T07:11:41.563Z,29.70
2018-06-03T07:14:40.020Z,30.30
2018-06-03T07:17:37.665Z,30.40
2018-06-03T07:20:35.308Z,30.70
2018-06-03T07:23:33.133Z,30.70
2018-06-03T07:26:30.873Z,30.20
2018-06-03T07:35:08.598Z,28.70
2018-06-03T07:38:06.901Z,29.10
2018-06-03T07:41:04.766Z,29.80
2018-06-03T07:44:02.740Z,30.80
2018-06-03T07:47:00.771Z,31.10
2018-06-03T07:49:58.606Z,31.60
2018-06-03T07:52:57.955Z,32.50
2018-06-03T07:55:55.595Z,32.20
2018-06-03T07:58:53.645Z,32.20
2018-06-03T08:01:51.612Z,31.60
2018-06-03T08:04:50.782Z,31.10
2018-06-03T08:07:48.532Z,31.00
2018-06-03T08:10:46.569Z,31.00
2018-06-03T08:13:44.804Z,31.00
2018-06-03T08:16:42.987Z,31.50
2018-06-03T08:19:41.241Z,31.80
2018-06-03T08:22:39.160Z,31.80
2018-06-03T08:25:37.028Z,31.30
2018-06-03T08:28:34.955Z,31.20
2018-06-03T08:37:12.761Z,31.50
2018-06-03T08:40:10.596Z,32.20
2018-06-03T08:43:08.677Z,32.80
2018-06-03T08:46:06.638Z,33.00
2018-06-03T08:49:04.784Z,33.50
2018-06-03T08:52:02.422Z,33.60
2018-06-03T09:00:39.846Z,32.50
2018-06-03T09:03:38.009Z,32.40
2018-06-03T09:06:35.930Z,32.50
2018-06-03T09:09:34.019Z,32.60
2018-06-03T09:12:32.027Z,32.40
2018-06-03T09:15:29.812Z,33.50
2018-06-03T09:18:27.621Z,34.30
2018-06-03T09:21:26.263Z,34.10
2018-06-03T09:24:26.292Z,34.30
2018-06-03T09:27:24.299Z,34.20
2018-06-03T09:30:22.504Z,34.50
2018-06-03T09:33:20.388Z,34.80
2018-06-03T09:36:18.495Z,33.60
2018-06-03T09:39:16.512Z,33.50
2018-06-03T09:42:14.458Z,33.50
2018-06-03T09:45:12.333Z,33.30
2018-06-03T09:48:11.088Z,33.50
2018-06-03T09:51:08.775Z,33.70
2018-06-03T09:54:06.615Z,33.70
2018-06-03T09:57:04.486Z,33.10
2018-06-03T10:00:02.197Z,32.60
2018-06-03T10:03:00.019Z,33.60
2018-06-03T10:05:57.920Z,34.10
2018-06-03T10:08:55.874Z,34.00
2018-06-03T10:11:53.931Z,33.50
2018-06-03T10:14:51.875Z,33.20
2018-06-03T10:17:50.106Z,33.10
2018-06-03T10:20:47.945Z,33.60
2018-06-03T10:23:45.999Z,34.10
2018-06-03T10:26:43.908Z,34.60
2018-06-03T10:29:41.984Z,34.60
2018-06-03T10:32:39.833Z,34.50
2018-06-03T10:35:38.038Z,34.90
2018-06-03T10:38:36.049Z,34.40
2018-06-03T10:41:33.958Z,34.60
2018-06-03T10:44:31.856Z,35.20
2018-06-03T10:47:29.963Z,34.80
2018-06-03T10:50:27.917Z,34.10
2018-06-03T10:53:27.245Z,34.60
2018-06-03T10:56:24.977Z,34.90
2018-06-03T10:59:22.853Z,35.20
2018-06-03T11:05:11.232Z,35.00
2018-06-03T11:08:09.199Z,34.80
2018-06-03T11:11:06.955Z,35.40
2018-06-03T11:14:05.037Z,35.50
2018-06-03T11:17:02.972Z,35.40
2018-06-03T11:20:01.019Z,35.40
2018-06-03T11:22:59.272Z,35.70
2018-06-03T11:25:57.045Z,35.70
2018-06-03T11:28:54.452Z,35.50
2018-06-03T11:31:52.473Z,35.30
2018-06-03T11:34:50.452Z,35.60
2018-06-03T11:37:48.144Z,35.60
2018-06-03T11:40:46.321Z,35.50
2018-06-03T11:43:44.302Z,34.70
2018-06-03T11:46:42.226Z,34.20
2018-06-03T11:49:40.186Z,34.40
2018-06-03T11:52:38.264Z,33.70
2018-06-03T11:55:36.404Z,33.90
2018-06-03T11:59:07.330Z,33.80
2018-06-03T12:02:05.302Z,33.50
2018-06-03T12:05:03.364Z,32.60
2018-06-03T12:08:01.551Z,32.10
2018-06-03T12:10:59.451Z,32.00
2018-06-03T12:22:47.712Z,32.00
2018-06-03T12:25:45.177Z,31.30
2018-06-03T12:28:42.890Z,31.60
2018-06-03T12:34:30.696Z,31.30
2018-06-03T12:37:28.825Z,30.90
2018-06-03T12:40:26.978Z,30.80
2018-06-03T12:43:25.075Z,30.50
2018-06-03T12:46:23.323Z,30.30
2018-06-03T12:49:20.668Z,31.00
2018-06-03T12:52:18.843Z,31.40
2018-06-03T12:55:16.170Z,31.50
2018-06-03T12:58:13.608Z,31.30
2018-06-03T13:01:10.927Z,31.70
2018-06-03T13:04:09.160Z,32.00
2018-06-03T13:07:07.362Z,31.50
2018-06-03T13:10:05.419Z,31.00
2018-06-03T13:13:03.564Z,31.20
2018-06-03T13:16:01.589Z,31.50
2018-06-03T13:18:58.794Z,31.90
2018-06-03T13:21:56.279Z,32.40
2018-06-03T13:24:54.436Z,32.30
2018-06-03T13:27:51.653Z,31.70
2018-06-03T13:30:49.745Z,31.70
2018-06-03T13:33:47.709Z,32.10
2018-06-03T13:36:45.795Z,32.60
2018-06-03T13:39:43.730Z,32.90
2018-06-03T13:42:42.041Z,32.60
2018-06-03T13:45:42.108Z,32.70
2018-06-03T13:48:39.997Z,32.60
2018-06-03T13:51:38.094Z,32.50
2018-06-03T13:54:37.398Z,31.80
2018-06-03T13:57:35.260Z,31.30
2018-06-03T14:00:33.527Z,30.80
2018-06-03T14:03:31.613Z,31.50
2018-06-03T14:06:29.769Z,32.20
2018-06-03T14:09:28.736Z,32.60
2018-06-03T14:12:26.821Z,32.90
2018-06-03T14:15:25.062Z,32.60
2018-06-03T14:18:23.073Z,32.10
2018-06-03T14:21:20.985Z,32.50
2018-06-03T14:24:18.934Z,32.20
2018-06-03T14:27:17.728Z,32.40
2018-06-03T14:30:15.529Z,32.20
2018-06-03T14:33:13.570Z,32.40
2018-06-03T14:36:11.479Z,32.30
2018-06-03T14:39:08.770Z,32.30
2018-06-03T14:42:06.783Z,32.50
2018-06-03T14:45:04.747Z,33.00
2018-06-03T14:48:02.165Z,33.20
2018-06-03T14:51:00.064Z,33.00
2018-06-03T14:53:58.391Z,32.50
2018-06-03T14:56:56.527Z,32.20
2018-06-03T14:59:53.988Z,32.50
2018-06-03T15:02:51.714Z,32.50
2018-06-03T15:05:49.470Z,32.30
2018-06-03T15:08:47.574Z,32.10
2018-06-03T15:11:46.584Z,31.80
2018-06-03T15:14:44.637Z,31.70
2018-06-03T15:17:42.756Z,31.80
2018-06-03T15:20:40.730Z,31.70
2018-06-03T15:23:38.567Z,31.60
2018-06-03T15:26:36.689Z,31.70
2018-06-03T15:29:34.855Z,31.50
2018-06-03T15:32:33.904Z,31.30
2018-06-03T15:35:31.927Z,30.60
2018-06-03T15:38:29.915Z,30.10
2018-06-03T15:41:28.162Z,29.90
2018-06-03T15:44:26.147Z,29.70
2018-06-03T15:47:23.889Z,29.70
2018-06-03T15:50:22.637Z,29.50
2018-06-03T15:53:20.281Z,29.30
2018-06-03T15:56:17.513Z,28.70
2018-06-03T15:59:15.449Z,28.30
2018-06-03T16:02:13.632Z,28.00
2018-06-03T16:05:11.694Z,27.90
2018-06-03T16:08:09.599Z,27.60
2018-06-03T16:11:07.830Z,27.20
2018-06-03T16:14:05.913Z,26.40
2018-06-03T16:17:03.372Z,25.50
2018-06-03T16:20:00.817Z,25.20
2018-06-03T16:22:58.914Z,25.10
2018-06-03T16:25:57.073Z,25.30
2018-06-03T16:28:55.292Z,25.40
2018-06-03T16:31:53.276Z,25.40
2018-06-03T16:34:52.247Z,25.40
2018-06-03T16:37:50.383Z,24.90
2018-06-03T16:40:48.386Z,24.60
2018-06-03T16:43:46.032Z,24.30
2018-06-03T16:46:44.175Z,24.20
2018-06-03T16:49:43.560Z,24.10
2018-06-03T16:52:42.191Z,23.80
2018-06-03T16:55:40.092Z,23.80
2018-06-03T16:58:37.397Z,23.70
2018-06-03T17:01:35.526Z,23.60
2018-06-03T17:04:33.511Z,23.20
2018-06-03T17:07:30.758Z,22.80
2018-06-03T17:10:28.812Z,22.50
2018-06-03T17:13:32.602Z,22.60
2018-06-03T17:16:30.511Z,22.60
2018-06-03T17:19:28.601Z,22.60
2018-06-03T17:22:26.692Z,22.50
2018-06-03T17:25:24.814Z,22.60
2018-06-03T17:28:23.600Z,22.70
2018-06-03T17:31:21.256Z,22.60
2018-06-03T17:34:19.433Z,22.70
2018-06-03T17:37:17.625Z,22.80
2018-06-03T17:40:15.786Z,22.80
2018-06-03T17:43:13.851Z,22.90
2018-06-03T17:46:11.161Z,22.90
2018-06-03T17:49:09.156Z,22.90
2018-06-03T17:52:07.121Z,23.10
2018-06-03T17:55:04.243Z,23.20
2018-06-03T17:58:02.181Z,23.20
2018-06-03T18:01:00.208Z,23.30
2018-06-03T18:03:58.271Z,23.30
2018-06-03T18:06:55.617Z,23.20
2018-06-03T18:09:54.460Z,23.00
2018-06-03T18:12:52.619Z,23.10
2018-06-03T18:15:50.811Z,23.20
2018-06-03T18:18:49.065Z,23.20
2018-06-03T18:21:47.367Z,23.10
2018-06-03T18:24:45.277Z,23.10
2018-06-03T18:27:43.851Z,23.10
2018-06-03T18:30:42.525Z,23.20
2018-06-03T18:33:40.602Z,23.20
2018-06-03T18:36:37.832Z,23.20
2018-06-03T18:39:35.230Z,23.20
2018-06-03T18:42:33.179Z,23.20
2018-06-03T18:45:31.164Z,23.10
2018-06-03T18:48:29.531Z,23.10
2018-06-03T18:51:27.214Z,23.10
2018-06-03T18:54:25.322Z,23.00
2018-06-03T18:57:23.292Z,23.00
2018-06-03T19:00:21.141Z,23.00
2018-06-03T19:03:19.147Z,23.00
2018-06-03T19:06:16.505Z,23.00
2018-06-03T19:09:14.441Z,23.00
2018-06-03T19:12:12.343Z,23.00
2018-06-03T19:15:10.543Z,23.10
2018-06-03T19:18:10.562Z,23.10
2018-06-03T19:21:07.808Z,23.10
2018-06-03T19:24:05.063Z,23.10
2018-06-03T19:27:02.385Z,23.10
2018-06-03T19:30:00.276Z,23.00
2018-06-03T19:32:57.518Z,23.00
2018-06-03T19:35:54.892Z,22.90
2018-06-03T19:38:52.817Z,22.90
2018-06-03T19:41:50.858Z,22.80
2018-06-03T19:47:38.853Z,22.70
2018-06-03T19:53:28.145Z,22.80
2018-06-03T19:56:26.266Z,22.60
2018-06-03T19:59:23.485Z,22.70
2018-06-03T20:02:21.421Z,22.60
2018-06-03T20:05:19.595Z,22.60
2018-06-03T20:08:16.842Z,22.50
2018-06-03T20:11:15.105Z,22.50
2018-06-03T20:14:13.344Z,22.40
2018-06-03T20:17:12.605Z,22.40
2018-06-03T20:20:10.932Z,22.40
2018-06-03T20:23:12.148Z,22.50
2018-06-03T20:26:09.672Z,22.40
2018-06-03T20:31:56.923Z,22.30
2018-06-03T20:34:55.044Z,22.30
2018-06-03T20:37:53.186Z,22.10
2018-06-03T20:40:51.173Z,22.20
2018-06-03T20:43:49.304Z,22.10
2018-06-03T20:46:53.695Z,22.10
2018-06-03T20:49:53.774Z,22.10
2018-06-03T20:52:55.010Z,22.10
2018-06-03T20:55:52.813Z,22.20
2018-06-03T20:58:51.008Z,22.20
2018-06-03T21:01:49.196Z,22.10
2018-06-03T21:04:47.268Z,22.10
2018-06-03T21:07:44.418Z,22.00
2018-06-03T21:10:41.838Z,22.00
2018-06-03T21:13:39.931Z,21.90
2018-06-03T21:16:37.789Z,21.90
2018-06-03T21:19:35.768Z,21.90
2018-06-03T21:22:33.787Z,21.80
2018-06-03T21:25:31.033Z,21.90
2018-06-03T21:28:29.077Z,21.90
2018-06-03T21:31:26.311Z,21.80
2018-06-03T21:34:24.465Z,21.70
2018-06-03T21:37:21.678Z,21.70
2018-06-03T21:40:19.684Z,21.70
2018-06-03T21:46:07.968Z,21.70
2018-06-03T21:49:07.012Z,21.70
2018-06-03T21:52:04.315Z,21.80
2018-06-03T21:55:01.648Z,21.80
2018-06-03T21:57:59.807Z,21.80
2018-06-03T22:00:57.750Z,21.80
2018-06-03T22:03:55.683Z,21.70
2018-06-03T22:06:53.916Z,21.70
2018-06-03T22:09:52.058Z,21.70
2018-06-03T22:12:49.984Z,21.60
2018-06-03T22:15:48.204Z,21.60
2018-06-03T22:18:45.406Z,21.60
2018-06-03T22:21:42.733Z,21.70
2018-06-03T22:24:40.861Z,21.70
2018-06-03T22:27:38.230Z,21.70
2018-06-03T22:30:36.186Z,21.70
2018-06-03T22:34:05.350Z,21.70
2018-06-03T22:37:03.492Z,21.60
2018-06-03T22:40:01.486Z,21.60
2018-06-03T22:42:58.707Z,21.50
2018-06-03T22:45:56.015Z,21.50
2018-06-03T22:48:54.048Z,21.50
2018-06-03T22:51:52.159Z,21.50
2018-06-03T22:54:51.226Z,21.50
2018-06-03T22:58:04.240Z,21.50
2018-06-03T23:01:01.417Z,21.50
2018-06-03T23:03:59.456Z,21.40
2018-06-03T23:06:57.402Z,21.50
2018-06-03T23:09:55.664Z,21.40
2018-06-03T23:12:53.646Z,21.40
2018-06-03T23:15:51.775Z,21.40
2018-06-03T23:18:50.917Z,21.40
2018-06-03T23:21:48.107Z,21.40
2018-06-03T23:24:46.138Z,21.30
2018-06-03T23:27:44.161Z,21.30
2018-06-03T23:30:42.200Z,21.30
2018-06-03T23:33:40.345Z,21.20
2018-06-03T23:36:38.508Z,21.20
2018-06-03T23:39:36.557Z,21.20
2018-06-03T23:42:34.680Z,21.20
2018-06-03T23:48:22.812Z,21.20
2018-06-03T23:51:20.015Z,21.10
2018-06-03T23:54:18.135Z,21.10
2018-06-03T23:57:16.280Z,21.10
